sensor_id;sensor_type;location;lat;lon;timestamp;P1;durP1;ratioP1;P2;durP2;ratioP2
55483;SDS011;41345;51.704;5.146;2023-02-24T00:03:05;19.45;;;11.73;;
55483;SDS011;41345;51.704;5.146;2023-02-24T00:08:09;23.35;;;15.00;;
55483;SDS011;41345;51.704;5.146;2023-02-24T00:13:10;25.23;;;17.23;;
55483;SDS011;41345;51.704;5.146;2023-02-24T00:18:11;24.70;;;16.92;;
55483;SDS011;41345;51.704;5.146;2023-02-24T00:23:11;26.45;;;17.55;;
55483;SDS011;41345;51.704;5.146;2023-02-24T00:28:11;28.20;;;17.73;;
55483;SDS011;41345;51.704;5.146;2023-02-24T00:33:13;27.40;;;17.85;;
55483;SDS011;41345;51.704;5.146;2023-02-24T00:38:14;30.10;;;15.52;;
55483;SDS011;41345;51.704;5.146;2023-02-24T00:43:14;25.17;;;15.20;;
55483;SDS011;41345;51.704;5.146;2023-02-24T00:48:14;26.17;;;15.35;;
55483;SDS011;41345;51.704;5.146;2023-02-24T00:53:14;21.00;;;14.43;;
55483;SDS011;41345;51.704;5.146;2023-02-24T00:58:17;26.88;;;12.40;;
55483;SDS011;41345;51.704;5.146;2023-02-24T01:03:18;18.67;;;11.98;;
55483;SDS011;41345;51.704;5.146;2023-02-24T01:08:18;21.42;;;11.00;;
55483;SDS011;41345;51.704;5.146;2023-02-24T01:13:22;22.15;;;10.05;;
55483;SDS011;41345;51.704;5.146;2023-02-24T01:18:22;20.38;;;9.63;;
55483;SDS011;41345;51.704;5.146;2023-02-24T01:23:22;20.08;;;9.02;;
55483;SDS011;41345;51.704;5.146;2023-02-24T01:28:23;25.63;;;10.80;;
55483;SDS011;41345;51.704;5.146;2023-02-24T01:33:23;19.25;;;10.10;;
55483;SDS011;41345;51.704;5.146;2023-02-24T01:38:23;22.55;;;10.27;;
55483;SDS011;41345;51.704;5.146;2023-02-24T01:43:24;21.05;;;9.70;;
55483;SDS011;41345;51.704;5.146;2023-02-24T01:48:24;22.38;;;9.57;;
55483;SDS011;41345;51.704;5.146;2023-02-24T01:53:25;20.70;;;9.85;;
55483;SDS011;41345;51.704;5.146;2023-02-24T01:58:26;18.00;;;8.90;;
55483;SDS011;41345;51.704;5.146;2023-02-24T02:03:31;18.15;;;9.00;;
55483;SDS011;41345;51.704;5.146;2023-02-24T02:08:32;17.73;;;9.63;;
55483;SDS011;41345;51.704;5.146;2023-02-24T02:13:36;21.48;;;11.10;;
55483;SDS011;41345;51.704;5.146;2023-02-24T02:29:24;15.55;;;8.80;;
55483;SDS011;41345;51.704;5.146;2023-02-24T02:34:49;18.58;;;8.50;;
55483;SDS011;41345;51.704;5.146;2023-02-24T02:39:51;16.98;;;8.95;;
55483;SDS011;41345;51.704;5.146;2023-02-24T02:45:01;22.85;;;10.27;;
55483;SDS011;41345;51.704;5.146;2023-02-24T02:50:06;16.30;;;10.35;;
55483;SDS011;41345;51.704;5.146;2023-02-24T02:55:10;20.27;;;9.23;;
55483;SDS011;41345;51.704;5.146;2023-02-24T03:05:14;18.92;;;11.55;;
55483;SDS011;41345;51.704;5.146;2023-02-24T03:10:20;19.38;;;12.38;;
55483;SDS011;41345;51.704;5.146;2023-02-24T03:15:22;13.38;;;11.70;;
55483;SDS011;41345;51.704;5.146;2023-02-24T03:20:28;20.23;;;11.50;;
55483;SDS011;41345;51.704;5.146;2023-02-24T03:25:37;18.33;;;11.60;;
55483;SDS011;41345;51.704;5.146;2023-02-24T03:30:42;15.98;;;11.77;;
55483;SDS011;41345;51.704;5.146;2023-02-24T03:35:43;18.20;;;11.65;;
55483;SDS011;41345;51.704;5.146;2023-02-24T03:40:43;17.40;;;10.90;;
55483;SDS011;41345;51.704;5.146;2023-02-24T03:45:43;18.75;;;10.98;;
55483;SDS011;41345;51.704;5.146;2023-02-24T03:50:45;22.60;;;14.27;;
55483;SDS011;41345;51.704;5.146;2023-02-24T04:01:09;23.55;;;16.15;;
55483;SDS011;41345;51.704;5.146;2023-02-24T04:11:16;24.33;;;16.92;;
55483;SDS011;41345;51.704;5.146;2023-02-24T04:16:31;34.50;;;17.20;;
55483;SDS011;41345;51.704;5.146;2023-02-24T04:21:35;23.25;;;17.73;;
55483;SDS011;41345;51.704;5.146;2023-02-24T04:26:37;24.10;;;15.70;;
55483;SDS011;41345;51.704;5.146;2023-02-24T04:31:42;30.37;;;15.87;;
55483;SDS011;41345;51.704;5.146;2023-02-24T04:36:42;19.60;;;14.75;;
55483;SDS011;41345;51.704;5.146;2023-02-24T04:41:48;22.40;;;14.57;;
55483;SDS011;41345;51.704;5.146;2023-02-24T04:46:49;22.98;;;13.15;;
55483;SDS011;41345;51.704;5.146;2023-02-24T04:51:50;17.60;;;12.48;;
55483;SDS011;41345;51.704;5.146;2023-02-24T04:56:50;18.13;;;11.98;;
55483;SDS011;41345;51.704;5.146;2023-02-24T05:01:50;18.50;;;10.80;;
55483;SDS011;41345;51.704;5.146;2023-02-24T05:06:54;22.00;;;11.95;;
55483;SDS011;41345;51.704;5.146;2023-02-24T05:11:56;18.85;;;9.88;;
55483;SDS011;41345;51.704;5.146;2023-02-24T05:16:56;20.48;;;10.27;;
55483;SDS011;41345;51.704;5.146;2023-02-24T05:21:59;17.92;;;10.15;;
55483;SDS011;41345;51.704;5.146;2023-02-24T05:27:01;19.80;;;9.30;;
55483;SDS011;41345;51.704;5.146;2023-02-24T05:32:02;19.10;;;9.38;;
55483;SDS011;41345;51.704;5.146;2023-02-24T05:37:03;16.27;;;9.15;;
55483;SDS011;41345;51.704;5.146;2023-02-24T05:42:09;20.45;;;8.38;;
55483;SDS011;41345;51.704;5.146;2023-02-24T05:47:10;16.65;;;7.93;;
55483;SDS011;41345;51.704;5.146;2023-02-24T05:52:10;25.67;;;7.65;;
55483;SDS011;41345;51.704;5.146;2023-02-24T05:57:14;15.25;;;7.90;;
55483;SDS011;41345;51.704;5.146;2023-02-24T06:02:17;15.35;;;7.22;;
55483;SDS011;41345;51.704;5.146;2023-02-24T06:07:26;15.65;;;7.32;;
55483;SDS011;41345;51.704;5.146;2023-02-24T06:12:28;19.05;;;6.88;;
55483;SDS011;41345;51.704;5.146;2023-02-24T06:17:28;13.93;;;6.60;;
55483;SDS011;41345;51.704;5.146;2023-02-24T06:22:29;15.18;;;5.72;;
55483;SDS011;41345;51.704;5.146;2023-02-24T06:27:32;14.63;;;5.68;;
55483;SDS011;41345;51.704;5.146;2023-02-24T06:32:35;18.90;;;5.20;;
55483;SDS011;41345;51.704;5.146;2023-02-24T06:37:35;20.92;;;6.15;;
55483;SDS011;41345;51.704;5.146;2023-02-24T06:42:36;23.27;;;5.60;;
55483;SDS011;41345;51.704;5.146;2023-02-24T06:47:38;14.38;;;5.20;;
55483;SDS011;41345;51.704;5.146;2023-02-24T06:52:38;10.23;;;4.63;;
55483;SDS011;41345;51.704;5.146;2023-02-24T06:57:39;13.77;;;5.28;;
55483;SDS011;41345;51.704;5.146;2023-02-24T07:02:42;16.10;;;5.88;;
55483;SDS011;41345;51.704;5.146;2023-02-24T07:07:43;11.52;;;3.92;;
55483;SDS011;41345;51.704;5.146;2023-02-24T07:12:45;10.70;;;3.60;;
55483;SDS011;41345;51.704;5.146;2023-02-24T07:17:45;12.50;;;2.97;;
55483;SDS011;41345;51.704;5.146;2023-02-24T07:22:46;13.20;;;4.23;;
55483;SDS011;41345;51.704;5.146;2023-02-24T07:27:46;14.95;;;3.95;;
55483;SDS011;41345;51.704;5.146;2023-02-24T07:32:47;18.40;;;4.38;;
55483;SDS011;41345;51.704;5.146;2023-02-24T07:37:47;12.70;;;3.67;;
55483;SDS011;41345;51.704;5.146;2023-02-24T07:42:47;10.90;;;3.90;;
55483;SDS011;41345;51.704;5.146;2023-02-24T07:47:47;11.02;;;4.00;;
55483;SDS011;41345;51.704;5.146;2023-02-24T07:52:48;19.98;;;4.03;;
55483;SDS011;41345;51.704;5.146;2023-02-24T07:57:48;15.93;;;4.28;;
55483;SDS011;41345;51.704;5.146;2023-02-24T08:02:53;13.68;;;4.28;;
55483;SDS011;41345;51.704;5.146;2023-02-24T08:07:54;14.73;;;4.20;;
55483;SDS011;41345;51.704;5.146;2023-02-24T08:12:55;14.90;;;3.67;;
55483;SDS011;41345;51.704;5.146;2023-02-24T08:18:01;11.60;;;3.78;;
55483;SDS011;41345;51.704;5.146;2023-02-24T08:23:02;11.27;;;3.90;;
55483;SDS011;41345;51.704;5.146;2023-02-24T08:28:06;14.40;;;4.30;;
55483;SDS011;41345;51.704;5.146;2023-02-24T08:33:11;15.40;;;3.85;;
55483;SDS011;41345;51.704;5.146;2023-02-24T08:38:16;14.20;;;4.07;;
55483;SDS011;41345;51.704;5.146;2023-02-24T08:43:21;15.68;;;4.70;;
55483;SDS011;41345;51.704;5.146;2023-02-24T08:48:31;16.95;;;4.82;;
55483;SDS011;41345;51.704;5.146;2023-02-24T08:53:36;13.43;;;3.63;;
55483;SDS011;41345;51.704;5.146;2023-02-24T08:58:40;18.45;;;4.05;;
55483;SDS011;41345;51.704;5.146;2023-02-24T09:03:46;18.20;;;3.75;;
55483;SDS011;41345;51.704;5.146;2023-02-24T09:08:47;22.02;;;3.65;;
55483;SDS011;41345;51.704;5.146;2023-02-24T09:13:48;15.70;;;3.85;;
55483;SDS011;41345;51.704;5.146;2023-02-24T09:18:53;12.55;;;4.07;;
55483;SDS011;41345;51.704;5.146;2023-02-24T09:24:12;15.80;;;3.22;;
55483;SDS011;41345;51.704;5.146;2023-02-24T09:29:13;9.73;;;3.55;;
55483;SDS011;41345;51.704;5.146;2023-02-24T09:34:36;11.32;;;3.72;;
55483;SDS011;41345;51.704;5.146;2023-02-24T09:39:36;19.33;;;3.70;;
55483;SDS011;41345;51.704;5.146;2023-02-24T09:45:06;10.27;;;2.83;;
55483;SDS011;41345;51.704;5.146;2023-02-24T10:00:26;15.10;;;3.10;;
55483;SDS011;41345;51.704;5.146;2023-02-24T10:05:34;9.25;;;3.13;;
55483;SDS011;41345;51.704;5.146;2023-02-24T10:10:37;11.60;;;3.13;;
55483;SDS011;41345;51.704;5.146;2023-02-24T10:15:37;13.55;;;3.50;;
55483;SDS011;41345;51.704;5.146;2023-02-24T10:26:17;13.10;;;3.30;;
55483;SDS011;41345;51.704;5.146;2023-02-24T10:31:44;11.80;;;4.30;;
55483;SDS011;41345;51.704;5.146;2023-02-24T10:36:46;12.60;;;3.80;;
55483;SDS011;41345;51.704;5.146;2023-02-24T10:41:50;15.98;;;4.82;;
55483;SDS011;41345;51.704;5.146;2023-02-24T10:47:14;12.73;;;4.57;;
55483;SDS011;41345;51.704;5.146;2023-02-24T10:52:16;16.63;;;5.50;;
55483;SDS011;41345;51.704;5.146;2023-02-24T10:57:42;15.80;;;4.85;;
55483;SDS011;41345;51.704;5.146;2023-02-24T11:02:51;19.08;;;5.15;;
55483;SDS011;41345;51.704;5.146;2023-02-24T11:08:04;10.25;;;4.18;;
55483;SDS011;41345;51.704;5.146;2023-02-24T11:13:11;14.95;;;5.50;;
55483;SDS011;41345;51.704;5.146;2023-02-24T11:18:32;21.35;;;6.90;;
55483;SDS011;41345;51.704;5.146;2023-02-24T11:23:33;24.98;;;7.80;;
55483;SDS011;41345;51.704;5.146;2023-02-24T11:28:38;17.58;;;7.78;;
55483;SDS011;41345;51.704;5.146;2023-02-24T11:33:54;22.08;;;8.77;;
55483;SDS011;41345;51.704;5.146;2023-02-24T11:44:31;23.77;;;12.27;;
55483;SDS011;41345;51.704;5.146;2023-02-24T11:49:35;23.15;;;13.02;;
55483;SDS011;41345;51.704;5.146;2023-02-24T11:54:43;16.40;;;12.65;;
55483;SDS011;41345;51.704;5.146;2023-02-24T11:59:48;21.48;;;14.40;;
55483;SDS011;41345;51.704;5.146;2023-02-24T12:10:02;19.88;;;15.05;;
55483;SDS011;41345;51.704;5.146;2023-02-24T12:15:09;23.42;;;15.88;;
55483;SDS011;41345;51.704;5.146;2023-02-24T12:20:26;18.88;;;16.90;;
55483;SDS011;41345;51.704;5.146;2023-02-24T12:25:30;16.15;;;14.50;;
55483;SDS011;41345;51.704;5.146;2023-02-24T12:46:05;20.95;;;18.98;;
55483;SDS011;41345;51.704;5.146;2023-02-24T12:51:07;22.27;;;17.60;;
55483;SDS011;41345;51.704;5.146;2023-02-24T13:01:15;19.80;;;18.10;;
55483;SDS011;41345;51.704;5.146;2023-02-24T13:16:50;22.60;;;20.33;;
55483;SDS011;41345;51.704;5.146;2023-02-24T13:27:06;26.55;;;24.00;;
55483;SDS011;41345;51.704;5.146;2023-02-24T13:32:19;26.92;;;24.25;;
55483;SDS011;41345;51.704;5.146;2023-02-24T13:37:26;29.27;;;26.30;;
55483;SDS011;41345;51.704;5.146;2023-02-24T13:42:28;29.40;;;26.13;;
55483;SDS011;41345;51.704;5.146;2023-02-24T13:47:44;27.98;;;25.20;;
55483;SDS011;41345;51.704;5.146;2023-02-24T14:03:09;25.65;;;18.58;;
55483;SDS011;41345;51.704;5.146;2023-02-24T14:08:30;23.48;;;15.95;;
55483;SDS011;41345;51.704;5.146;2023-02-24T14:13:32;26.08;;;14.13;;
55483;SDS011;41345;51.704;5.146;2023-02-24T14:18:33;18.50;;;14.23;;
55483;SDS011;41345;51.704;5.146;2023-02-24T14:23:33;24.60;;;14.43;;
55483;SDS011;41345;51.704;5.146;2023-02-24T14:28:35;22.15;;;11.43;;
55483;SDS011;41345;51.704;5.146;2023-02-24T14:33:36;28.58;;;10.27;;
55483;SDS011;41345;51.704;5.146;2023-02-24T14:38:37;12.93;;;4.20;;
55483;SDS011;41345;51.704;5.146;2023-02-24T14:43:41;20.88;;;4.95;;
55483;SDS011;41345;51.704;5.146;2023-02-24T14:48:41;17.93;;;5.60;;
55483;SDS011;41345;51.704;5.146;2023-02-24T14:53:47;17.45;;;4.97;;
55483;SDS011;41345;51.704;5.146;2023-02-24T14:58:53;18.60;;;5.32;;
55483;SDS011;41345;51.704;5.146;2023-02-24T15:03:54;20.88;;;4.45;;
55483;SDS011;41345;51.704;5.146;2023-02-24T15:08:59;26.27;;;5.82;;
55483;SDS011;41345;51.704;5.146;2023-02-24T15:14:01;17.73;;;6.07;;
55483;SDS011;41345;51.704;5.146;2023-02-24T15:19:02;27.02;;;7.05;;
55483;SDS011;41345;51.704;5.146;2023-02-24T15:24:03;23.38;;;6.65;;
55483;SDS011;41345;51.704;5.146;2023-02-24T15:29:13;19.58;;;3.97;;
55483;SDS011;41345;51.704;5.146;2023-02-24T15:34:18;19.17;;;3.40;;
55483;SDS011;41345;51.704;5.146;2023-02-24T15:39:23;21.65;;;3.40;;
55483;SDS011;41345;51.704;5.146;2023-02-24T15:44:30;19.48;;;3.28;;
55483;SDS011;41345;51.704;5.146;2023-02-24T15:49:30;19.80;;;3.88;;
55483;SDS011;41345;51.704;5.146;2023-02-24T15:54:33;11.88;;;2.97;;
55483;SDS011;41345;51.704;5.146;2023-02-24T15:59:35;17.83;;;3.90;;
55483;SDS011;41345;51.704;5.146;2023-02-24T16:04:35;19.33;;;2.67;;
55483;SDS011;41345;51.704;5.146;2023-02-24T16:09:36;14.25;;;3.33;;
55483;SDS011;41345;51.704;5.146;2023-02-24T16:14:38;15.02;;;2.75;;
55483;SDS011;41345;51.704;5.146;2023-02-24T16:19:39;10.77;;;2.75;;
55483;SDS011;41345;51.704;5.146;2023-02-24T16:24:39;9.30;;;2.70;;
55483;SDS011;41345;51.704;5.146;2023-02-24T16:29:40;9.32;;;3.75;;
55483;SDS011;41345;51.704;5.146;2023-02-24T16:34:40;7.07;;;2.30;;
55483;SDS011;41345;51.704;5.146;2023-02-24T16:39:41;13.98;;;2.88;;
55483;SDS011;41345;51.704;5.146;2023-02-24T16:44:41;10.07;;;2.70;;
55483;SDS011;41345;51.704;5.146;2023-02-24T16:49:41;8.90;;;2.80;;
55483;SDS011;41345;51.704;5.146;2023-02-24T16:54:41;8.93;;;3.30;;
55483;SDS011;41345;51.704;5.146;2023-02-24T16:59:42;9.02;;;4.22;;
55483;SDS011;41345;51.704;5.146;2023-02-24T17:04:42;12.63;;;5.90;;
55483;SDS011;41345;51.704;5.146;2023-02-24T17:09:43;10.20;;;6.25;;
55483;SDS011;41345;51.704;5.146;2023-02-24T17:14:43;11.73;;;6.18;;
55483;SDS011;41345;51.704;5.146;2023-02-24T17:19:43;11.13;;;6.22;;
55483;SDS011;41345;51.704;5.146;2023-02-24T17:24:43;11.45;;;6.35;;
55483;SDS011;41345;51.704;5.146;2023-02-24T17:29:44;12.18;;;6.65;;
55483;SDS011;41345;51.704;5.146;2023-02-24T17:34:44;14.15;;;9.65;;
55483;SDS011;41345;51.704;5.146;2023-02-24T17:39:44;10.80;;;9.02;;
55483;SDS011;41345;51.704;5.146;2023-02-24T17:44:45;14.73;;;9.80;;
55483;SDS011;41345;51.704;5.146;2023-02-24T17:49:46;14.85;;;9.35;;
55483;SDS011;41345;51.704;5.146;2023-02-24T17:54:46;21.30;;;9.82;;
55483;SDS011;41345;51.704;5.146;2023-02-24T17:59:47;19.92;;;9.77;;
55483;SDS011;41345;51.704;5.146;2023-02-24T18:04:50;23.40;;;12.48;;
55483;SDS011;41345;51.704;5.146;2023-02-24T18:09:50;24.55;;;11.93;;
55483;SDS011;41345;51.704;5.146;2023-02-24T18:14:50;16.90;;;11.43;;
55483;SDS011;41345;51.704;5.146;2023-02-24T18:19:52;20.95;;;9.18;;
55483;SDS011;41345;51.704;5.146;2023-02-24T18:24:52;17.38;;;8.15;;
55483;SDS011;41345;51.704;5.146;2023-02-24T18:29:52;14.70;;;9.23;;
55483;SDS011;41345;51.704;5.146;2023-02-24T18:34:53;18.25;;;9.07;;
55483;SDS011;41345;51.704;5.146;2023-02-24T18:39:53;14.63;;;7.60;;
55483;SDS011;41345;51.704;5.146;2023-02-24T18:44:53;21.33;;;10.40;;
55483;SDS011;41345;51.704;5.146;2023-02-24T18:49:53;20.48;;;8.60;;
55483;SDS011;41345;51.704;5.146;2023-02-24T18:54:54;19.08;;;8.82;;
55483;SDS011;41345;51.704;5.146;2023-02-24T18:59:54;15.25;;;8.18;;
55483;SDS011;41345;51.704;5.146;2023-02-24T19:04:54;12.18;;;7.97;;
55483;SDS011;41345;51.704;5.146;2023-02-24T19:09:55;13.65;;;7.10;;
55483;SDS011;41345;51.704;5.146;2023-02-24T19:14:55;15.52;;;6.93;;
55483;SDS011;41345;51.704;5.146;2023-02-24T19:19:55;12.95;;;5.88;;
55483;SDS011;41345;51.704;5.146;2023-02-24T19:24:55;10.43;;;6.03;;
55483;SDS011;41345;51.704;5.146;2023-02-24T19:29:57;17.27;;;6.18;;
55483;SDS011;41345;51.704;5.146;2023-02-24T19:34:57;14.90;;;7.25;;
55483;SDS011;41345;51.704;5.146;2023-02-24T19:39:58;12.25;;;5.97;;
55483;SDS011;41345;51.704;5.146;2023-02-24T19:44:58;13.32;;;5.85;;
55483;SDS011;41345;51.704;5.146;2023-02-24T19:49:58;13.63;;;5.97;;
55483;SDS011;41345;51.704;5.146;2023-02-24T19:54:59;14.75;;;6.35;;
55483;SDS011;41345;51.704;5.146;2023-02-24T19:59:59;14.20;;;7.05;;
55483;SDS011;41345;51.704;5.146;2023-02-24T20:04:59;15.98;;;8.25;;
55483;SDS011;41345;51.704;5.146;2023-02-24T20:10:00;21.48;;;10.05;;
55483;SDS011;41345;51.704;5.146;2023-02-24T20:15:00;19.05;;;11.45;;
55483;SDS011;41345;51.704;5.146;2023-02-24T20:20:00;14.00;;;9.23;;
55483;SDS011;41345;51.704;5.146;2023-02-24T20:25:00;17.55;;;9.30;;
55483;SDS011;41345;51.704;5.146;2023-02-24T20:30:01;17.08;;;7.53;;
55483;SDS011;41345;51.704;5.146;2023-02-24T20:35:01;17.58;;;7.70;;
55483;SDS011;41345;51.704;5.146;2023-02-24T20:40:01;16.70;;;5.90;;
55483;SDS011;41345;51.704;5.146;2023-02-24T20:45:02;19.95;;;6.57;;
55483;SDS011;41345;51.704;5.146;2023-02-24T20:50:02;15.20;;;6.50;;
55483;SDS011;41345;51.704;5.146;2023-02-24T20:55:04;16.27;;;7.18;;
55483;SDS011;41345;51.704;5.146;2023-02-24T21:00:05;15.13;;;6.95;;
55483;SDS011;41345;51.704;5.146;2023-02-24T21:05:07;22.40;;;10.18;;
55483;SDS011;41345;51.704;5.146;2023-02-24T21:10:08;15.48;;;9.20;;
55483;SDS011;41345;51.704;5.146;2023-02-24T21:15:08;23.48;;;9.10;;
55483;SDS011;41345;51.704;5.146;2023-02-24T21:20:11;19.33;;;8.70;;
55483;SDS011;41345;51.704;5.146;2023-02-24T21:25:11;16.45;;;7.53;;
55483;SDS011;41345;51.704;5.146;2023-02-24T21:30:11;15.00;;;7.20;;
55483;SDS011;41345;51.704;5.146;2023-02-24T21:35:12;13.67;;;8.03;;
55483;SDS011;41345;51.704;5.146;2023-02-24T21:40:12;16.83;;;8.65;;
55483;SDS011;41345;51.704;5.146;2023-02-24T21:45:18;26.30;;;9.57;;
55483;SDS011;41345;51.704;5.146;2023-02-24T21:50:18;25.50;;;8.82;;
55483;SDS011;41345;51.704;5.146;2023-02-24T21:55:18;15.38;;;8.77;;
55483;SDS011;41345;51.704;5.146;2023-02-24T22:00:19;15.30;;;7.90;;
55483;SDS011;41345;51.704;5.146;2023-02-24T22:05:20;17.77;;;6.28;;
55483;SDS011;41345;51.704;5.146;2023-02-24T22:10:21;13.70;;;5.05;;
55483;SDS011;41345;51.704;5.146;2023-02-24T22:15:21;15.88;;;5.40;;
55483;SDS011;41345;51.704;5.146;2023-02-24T22:20:22;12.90;;;5.82;;
55483;SDS011;41345;51.704;5.146;2023-02-24T22:25:22;16.17;;;5.65;;
55483;SDS011;41345;51.704;5.146;2023-02-24T22:30:22;12.93;;;6.80;;
55483;SDS011;41345;51.704;5.146;2023-02-24T22:35:23;14.40;;;6.70;;
55483;SDS011;41345;51.704;5.146;2023-02-24T22:40:23;15.95;;;7.93;;
55483;SDS011;41345;51.704;5.146;2023-02-24T22:45:23;20.65;;;10.15;;
55483;SDS011;41345;51.704;5.146;2023-02-24T22:50:24;20.73;;;11.00;;
55483;SDS011;41345;51.704;5.146;2023-02-24T22:55:24;17.65;;;11.27;;
55483;SDS011;41345;51.704;5.146;2023-02-24T23:00:25;10.57;;;8.90;;
55483;SDS011;41345;51.704;5.146;2023-02-24T23:05:25;19.08;;;8.80;;
55483;SDS011;41345;51.704;5.146;2023-02-24T23:10:25;17.13;;;7.07;;
55483;SDS011;41345;51.704;5.146;2023-02-24T23:15:25;15.30;;;6.60;;
55483;SDS011;41345;51.704;5.146;2023-02-24T23:20:26;14.15;;;5.00;;
55483;SDS011;41345;51.704;5.146;2023-02-24T23:25:26;13.77;;;4.32;;
55483;SDS011;41345;51.704;5.146;2023-02-24T23:30:26;12.40;;;4.53;;
55483;SDS011;41345;51.704;5.146;2023-02-24T23:35:27;10.68;;;4.78;;
55483;SDS011;41345;51.704;5.146;2023-02-24T23:40:27;14.43;;;5.32;;
55483;SDS011;41345;51.704;5.146;2023-02-24T23:45:27;14.27;;;5.83;;
55483;SDS011;41345;51.704;5.146;2023-02-24T23:50:28;12.02;;;6.90;;
55483;SDS011;41345;51.704;5.146;2023-02-24T23:55:28;12.35;;;7.38;;
